sensor_id;sensor_type;location;lat;lon;timestamp;temperature;humidity
45060;DHT22;30799;49.060;9.312;2022-08-04T00:00:09;25.80;56.80
45060;DHT22;30799;49.060;9.312;2022-08-04T00:08:34;25.80;56.80
45060;DHT22;30799;49.060;9.312;2022-08-04T00:11:06;25.80;56.80
45060;DHT22;30799;49.060;9.312;2022-08-04T00:13:53;25.80;56.80
45060;DHT22;30799;49.060;9.312;2022-08-04T00:16:37;25.80;56.80
45060;DHT22;30799;49.060;9.312;2022-08-04T00:19:17;25.80;56.80
45060;DHT22;30799;49.060;9.312;2022-08-04T00:21:50;25.80;56.80
45060;DHT22;30799;49.060;9.312;2022-08-04T00:24:19;25.80;56.90
45060;DHT22;30799;49.060;9.312;2022-08-04T00:26:46;25.80;56.90
45060;DHT22;30799;49.060;9.312;2022-08-04T00:29:14;25.80;56.90
45060;DHT22;30799;49.060;9.312;2022-08-04T00:31:41;25.80;56.90
45060;DHT22;30799;49.060;9.312;2022-08-04T00:34:27;25.80;57.00
45060;DHT22;30799;49.060;9.312;2022-08-04T00:36:56;25.80;56.90
45060;DHT22;30799;49.060;9.312;2022-08-04T00:39:24;25.80;56.90
45060;DHT22;30799;49.060;9.312;2022-08-04T00:47:27;25.80;57.00
45060;DHT22;30799;49.060;9.312;2022-08-04T00:50:07;25.80;57.00
45060;DHT22;30799;49.060;9.312;2022-08-04T00:52:49;25.80;57.00
45060;DHT22;30799;49.060;9.312;2022-08-04T00:55:35;25.80;57.00
45060;DHT22;30799;49.060;9.312;2022-08-04T00:58:28;25.80;57.00
45060;DHT22;30799;49.060;9.312;2022-08-04T01:01:02;25.80;57.00
45060;DHT22;30799;49.060;9.312;2022-08-04T01:06:33;25.80;57.10
45060;DHT22;30799;49.060;9.312;2022-08-04T01:15:02;25.80;57.10
45060;DHT22;30799;49.060;9.312;2022-08-04T01:18:03;25.80;57.10
45060;DHT22;30799;49.060;9.312;2022-08-04T01:20:48;25.80;57.10
45060;DHT22;30799;49.060;9.312;2022-08-04T01:23:31;25.80;57.10
45060;DHT22;30799;49.060;9.312;2022-08-04T01:29:09;25.80;57.10
45060;DHT22;30799;49.060;9.312;2022-08-04T01:31:59;25.80;57.10
45060;DHT22;30799;49.060;9.312;2022-08-04T01:34:34;25.80;57.10
45060;DHT22;30799;49.060;9.312;2022-08-04T01:37:09;25.80;57.10
45060;DHT22;30799;49.060;9.312;2022-08-04T01:39:43;25.80;57.20
45060;DHT22;30799;49.060;9.312;2022-08-04T01:42:17;25.80;57.20
45060;DHT22;30799;49.060;9.312;2022-08-04T01:45:00;25.80;57.20
45060;DHT22;30799;49.060;9.312;2022-08-04T01:47:29;25.80;57.20
45060;DHT22;30799;49.060;9.312;2022-08-04T01:50:07;25.80;57.20
45060;DHT22;30799;49.060;9.312;2022-08-04T01:52:36;25.80;57.20
45060;DHT22;30799;49.060;9.312;2022-08-04T01:55:06;25.80;57.20
45060;DHT22;30799;49.060;9.312;2022-08-04T01:57:41;25.80;57.20
45060;DHT22;30799;49.060;9.312;2022-08-04T02:00:15;25.80;57.20
45060;DHT22;30799;49.060;9.312;2022-08-04T02:02:44;25.80;57.20
45060;DHT22;30799;49.060;9.312;2022-08-04T02:05:14;25.80;57.20
45060;DHT22;30799;49.060;9.312;2022-08-04T02:07:46;25.80;57.20
45060;DHT22;30799;49.060;9.312;2022-08-04T02:16:01;25.80;57.20
45060;DHT22;30799;49.060;9.312;2022-08-04T02:21:04;25.80;57.20
45060;DHT22;30799;49.060;9.312;2022-08-04T02:23:39;25.80;57.20
45060;DHT22;30799;49.060;9.312;2022-08-04T02:26:16;25.80;57.20
45060;DHT22;30799;49.060;9.312;2022-08-04T02:29:12;25.80;57.20
45060;DHT22;30799;49.060;9.312;2022-08-04T02:31:54;25.80;57.30
45060;DHT22;30799;49.060;9.312;2022-08-04T02:34:43;25.70;57.20
45060;DHT22;30799;49.060;9.312;2022-08-04T02:37:15;25.80;57.30
45060;DHT22;30799;49.060;9.312;2022-08-04T02:39:43;25.80;57.30
45060;DHT22;30799;49.060;9.312;2022-08-04T02:42:15;25.70;57.20
45060;DHT22;30799;49.060;9.312;2022-08-04T02:44:44;25.70;57.20
45060;DHT22;30799;49.060;9.312;2022-08-04T02:47:19;25.80;57.30
45060;DHT22;30799;49.060;9.312;2022-08-04T02:49:46;25.70;57.30
45060;DHT22;30799;49.060;9.312;2022-08-04T02:52:17;25.80;57.30
45060;DHT22;30799;49.060;9.312;2022-08-04T02:54:46;25.80;57.30
45060;DHT22;30799;49.060;9.312;2022-08-04T02:57:14;25.80;57.30
45060;DHT22;30799;49.060;9.312;2022-08-04T03:02:33;25.70;57.30
45060;DHT22;30799;49.060;9.312;2022-08-04T03:05:09;25.80;57.40
45060;DHT22;30799;49.060;9.312;2022-08-04T03:30:15;25.80;57.40
45060;DHT22;30799;49.060;9.312;2022-08-04T03:38:57;25.80;57.40
45060;DHT22;30799;49.060;9.312;2022-08-04T03:47:33;25.70;57.40
45060;DHT22;30799;49.060;9.312;2022-08-04T03:55:41;25.70;57.40
45060;DHT22;30799;49.060;9.312;2022-08-04T04:13:48;25.70;57.40
45060;DHT22;30799;49.060;9.312;2022-08-04T04:22:28;25.70;57.40
45060;DHT22;30799;49.060;9.312;2022-08-04T04:36:18;25.70;57.50
45060;DHT22;30799;49.060;9.312;2022-08-04T04:39:05;25.70;57.40
45060;DHT22;30799;49.060;9.312;2022-08-04T04:41:49;25.70;57.40
45060;DHT22;30799;49.060;9.312;2022-08-04T04:47:45;25.70;57.50
45060;DHT22;30799;49.060;9.312;2022-08-04T04:53:22;25.70;57.50
45060;DHT22;30799;49.060;9.312;2022-08-04T04:56:07;25.70;57.50
45060;DHT22;30799;49.060;9.312;2022-08-04T04:58:38;25.70;57.50
45060;DHT22;30799;49.060;9.312;2022-08-04T05:04:06;25.70;57.50
45060;DHT22;30799;49.060;9.312;2022-08-04T05:06:53;25.70;57.50
45060;DHT22;30799;49.060;9.312;2022-08-04T05:15:26;24.80;52.50
45060;DHT22;30799;49.060;9.312;2022-08-04T05:17:56;24.60;52.50
45060;DHT22;30799;49.060;9.312;2022-08-04T05:20:45;24.60;52.80
45060;DHT22;30799;49.060;9.312;2022-08-04T05:23:40;24.50;52.80
45060;DHT22;30799;49.060;9.312;2022-08-04T05:26:11;24.50;52.60
45060;DHT22;30799;49.060;9.312;2022-08-04T05:28:47;24.50;52.70
45060;DHT22;30799;49.060;9.312;2022-08-04T05:31:30;24.50;52.80
45060;DHT22;30799;49.060;9.312;2022-08-04T05:34:08;24.40;52.80
45060;DHT22;30799;49.060;9.312;2022-08-04T05:36:46;24.40;52.80
45060;DHT22;30799;49.060;9.312;2022-08-04T05:39:20;24.50;53.20
45060;DHT22;30799;49.060;9.312;2022-08-04T05:41:49;24.40;52.90
45060;DHT22;30799;49.060;9.312;2022-08-04T05:44:25;24.40;52.90
45060;DHT22;30799;49.060;9.312;2022-08-04T05:46:56;24.40;52.70
45060;DHT22;30799;49.060;9.312;2022-08-04T05:49:24;24.50;52.70
45060;DHT22;30799;49.060;9.312;2022-08-04T05:51:59;24.50;53.00
45060;DHT22;30799;49.060;9.312;2022-08-04T05:54:27;24.60;53.10
45060;DHT22;30799;49.060;9.312;2022-08-04T05:56:56;24.80;53.30
45060;DHT22;30799;49.060;9.312;2022-08-04T05:59:24;24.80;53.10
45060;DHT22;30799;49.060;9.312;2022-08-04T06:01:57;24.90;53.50
45060;DHT22;30799;49.060;9.312;2022-08-04T06:04:37;25.00;53.50
45060;DHT22;30799;49.060;9.312;2022-08-04T06:07:05;25.00;53.40
45060;DHT22;30799;49.060;9.312;2022-08-04T06:09:32;25.10;53.40
45060;DHT22;30799;49.060;9.312;2022-08-04T06:12:02;25.10;53.60
45060;DHT22;30799;49.060;9.312;2022-08-04T06:14:42;25.20;53.70
45060;DHT22;30799;49.060;9.312;2022-08-04T06:17:13;25.20;53.80
45060;DHT22;30799;49.060;9.312;2022-08-04T06:20:01;25.20;53.80
45060;DHT22;30799;49.060;9.312;2022-08-04T06:22:51;25.20;53.90
45060;DHT22;30799;49.060;9.312;2022-08-04T06:25:24;25.30;54.00
45060;DHT22;30799;49.060;9.312;2022-08-04T06:27:52;25.30;54.00
45060;DHT22;30799;49.060;9.312;2022-08-04T06:30:20;25.30;54.10
45060;DHT22;30799;49.060;9.312;2022-08-04T06:36:33;25.30;54.20
45060;DHT22;30799;49.060;9.312;2022-08-04T06:39:03;25.30;54.30
45060;DHT22;30799;49.060;9.312;2022-08-04T06:41:31;25.30;54.30
45060;DHT22;30799;49.060;9.312;2022-08-04T06:44:00;25.30;54.30
45060;DHT22;30799;49.060;9.312;2022-08-04T06:46:29;25.30;54.30
45060;DHT22;30799;49.060;9.312;2022-08-04T06:48:56;25.30;54.40
45060;DHT22;30799;49.060;9.312;2022-08-04T06:51:23;25.30;54.40
45060;DHT22;30799;49.060;9.312;2022-08-04T06:54:06;25.40;54.50
45060;DHT22;30799;49.060;9.312;2022-08-04T06:56:34;25.30;54.50
45060;DHT22;30799;49.060;9.312;2022-08-04T06:59:02;25.40;54.60
45060;DHT22;30799;49.060;9.312;2022-08-04T07:01:29;25.40;54.60
45060;DHT22;30799;49.060;9.312;2022-08-04T07:03:58;25.40;54.70
45060;DHT22;30799;49.060;9.312;2022-08-04T07:06:25;25.40;54.70
45060;DHT22;30799;49.060;9.312;2022-08-04T07:08:52;25.40;54.70
45060;DHT22;30799;49.060;9.312;2022-08-04T07:11:19;25.40;54.80
45060;DHT22;30799;49.060;9.312;2022-08-04T07:13:47;25.40;54.80
45060;DHT22;30799;49.060;9.312;2022-08-04T07:16:16;25.40;54.80
45060;DHT22;30799;49.060;9.312;2022-08-04T07:18:43;25.40;54.80
45060;DHT22;30799;49.060;9.312;2022-08-04T07:21:11;25.40;54.90
45060;DHT22;30799;49.060;9.312;2022-08-04T07:23:44;25.40;54.90
45060;DHT22;30799;49.060;9.312;2022-08-04T07:26:11;25.40;54.90
45060;DHT22;30799;49.060;9.312;2022-08-04T07:28:39;25.40;54.90
45060;DHT22;30799;49.060;9.312;2022-08-04T07:31:10;25.40;54.90
45060;DHT22;30799;49.060;9.312;2022-08-04T07:33:58;25.40;55.00
45060;DHT22;30799;49.060;9.312;2022-08-04T07:36:47;25.50;55.00
45060;DHT22;30799;49.060;9.312;2022-08-04T07:39:17;25.40;55.00
45060;DHT22;30799;49.060;9.312;2022-08-04T07:41:59;25.50;55.10
45060;DHT22;30799;49.060;9.312;2022-08-04T07:44:31;25.50;55.10
45060;DHT22;30799;49.060;9.312;2022-08-04T07:47:03;25.50;55.10
45060;DHT22;30799;49.060;9.312;2022-08-04T07:49:31;25.50;55.20
45060;DHT22;30799;49.060;9.312;2022-08-04T07:52:17;25.50;55.20
45060;DHT22;30799;49.060;9.312;2022-08-04T07:54:45;25.50;55.20
45060;DHT22;30799;49.060;9.312;2022-08-04T07:57:11;25.50;55.20
45060;DHT22;30799;49.060;9.312;2022-08-04T07:59:58;25.50;55.20
45060;DHT22;30799;49.060;9.312;2022-08-04T08:02:25;25.50;55.30
45060;DHT22;30799;49.060;9.312;2022-08-04T08:04:52;25.50;55.30
45060;DHT22;30799;49.060;9.312;2022-08-04T08:07:19;25.50;55.30
45060;DHT22;30799;49.060;9.312;2022-08-04T08:09:46;25.50;55.90
45060;DHT22;30799;49.060;9.312;2022-08-04T08:12:14;25.50;55.30
45060;DHT22;30799;49.060;9.312;2022-08-04T08:15:01;25.50;55.30
45060;DHT22;30799;49.060;9.312;2022-08-04T08:17:28;25.50;55.30
45060;DHT22;30799;49.060;9.312;2022-08-04T08:19:54;25.50;55.40
45060;DHT22;30799;49.060;9.312;2022-08-04T08:22:21;25.50;55.40
45060;DHT22;30799;49.060;9.312;2022-08-04T08:24:48;25.60;55.40
45060;DHT22;30799;49.060;9.312;2022-08-04T08:27:15;25.50;55.40
45060;DHT22;30799;49.060;9.312;2022-08-04T08:29:42;25.60;55.50
45060;DHT22;30799;49.060;9.312;2022-08-04T08:32:10;25.50;55.40
45060;DHT22;30799;49.060;9.312;2022-08-04T08:34:40;25.60;55.50
45060;DHT22;30799;49.060;9.312;2022-08-04T08:37:31;25.50;55.40
45060;DHT22;30799;49.060;9.312;2022-08-04T08:40:26;25.60;55.50
45060;DHT22;30799;49.060;9.312;2022-08-04T09:00:44;25.60;55.60
45060;DHT22;30799;49.060;9.312;2022-08-04T09:03:55;25.60;55.60
45060;DHT22;30799;49.060;9.312;2022-08-04T09:12:21;25.60;55.60
45060;DHT22;30799;49.060;9.312;2022-08-04T09:17:42;25.60;55.70
45060;DHT22;30799;49.060;9.312;2022-08-04T09:28:52;25.60;55.70
45060;DHT22;30799;49.060;9.312;2022-08-04T09:31:30;25.60;55.70
45060;DHT22;30799;49.060;9.312;2022-08-04T09:34:42;25.70;55.80
45060;DHT22;30799;49.060;9.312;2022-08-04T09:37:56;25.60;55.70
45060;DHT22;30799;49.060;9.312;2022-08-04T09:40:31;25.60;55.70
45060;DHT22;30799;49.060;9.312;2022-08-04T09:46:22;25.60;55.70
45060;DHT22;30799;49.060;9.312;2022-08-04T09:49:20;25.60;55.80
45060;DHT22;30799;49.060;9.312;2022-08-04T09:54:52;25.70;55.80
45060;DHT22;30799;49.060;9.312;2022-08-04T09:57:33;25.70;55.90
45060;DHT22;30799;49.060;9.312;2022-08-04T10:00:07;25.60;55.80
45060;DHT22;30799;49.060;9.312;2022-08-04T10:02:41;25.70;55.90
45060;DHT22;30799;49.060;9.312;2022-08-04T10:05:16;25.60;55.80
45060;DHT22;30799;49.060;9.312;2022-08-04T10:11:13;25.70;55.90
45060;DHT22;30799;49.060;9.312;2022-08-04T10:14:30;25.70;55.90
45060;DHT22;30799;49.060;9.312;2022-08-04T10:17:03;25.70;55.90
45060;DHT22;30799;49.060;9.312;2022-08-04T10:19:37;25.70;55.90
45060;DHT22;30799;49.060;9.312;2022-08-04T10:25:16;25.70;55.90
45060;DHT22;30799;49.060;9.312;2022-08-04T10:28:10;25.70;56.00
45060;DHT22;30799;49.060;9.312;2022-08-04T10:30:39;25.70;56.00
45060;DHT22;30799;49.060;9.312;2022-08-04T10:33:35;25.70;55.90
45060;DHT22;30799;49.060;9.312;2022-08-04T10:36:07;25.70;55.90
45060;DHT22;30799;49.060;9.312;2022-08-04T10:38:49;25.70;56.00
45060;DHT22;30799;49.060;9.312;2022-08-04T10:44:27;25.70;56.00
45060;DHT22;30799;49.060;9.312;2022-08-04T10:47:14;25.70;56.00
45060;DHT22;30799;49.060;9.312;2022-08-04T10:49:46;25.70;55.90
45060;DHT22;30799;49.060;9.312;2022-08-04T10:52:33;25.70;56.00
45060;DHT22;30799;49.060;9.312;2022-08-04T10:55:05;25.80;56.10
45060;DHT22;30799;49.060;9.312;2022-08-04T10:57:44;25.70;56.00
45060;DHT22;30799;49.060;9.312;2022-08-04T11:00:24;25.80;56.00
45060;DHT22;30799;49.060;9.312;2022-08-04T11:03:16;25.80;56.00
45060;DHT22;30799;49.060;9.312;2022-08-04T11:05:52;25.80;56.00
45060;DHT22;30799;49.060;9.312;2022-08-04T11:08:30;25.80;56.10
45060;DHT22;30799;49.060;9.312;2022-08-04T11:14:03;25.80;56.00
45060;DHT22;30799;49.060;9.312;2022-08-04T11:16:38;25.80;56.00
45060;DHT22;30799;49.060;9.312;2022-08-04T11:19:24;25.80;56.10
45060;DHT22;30799;49.060;9.312;2022-08-04T11:22:35;25.80;56.10
45060;DHT22;30799;49.060;9.312;2022-08-04T11:25:19;25.80;56.10
45060;DHT22;30799;49.060;9.312;2022-08-04T11:28:15;25.80;56.10
45060;DHT22;30799;49.060;9.312;2022-08-04T11:30:58;25.80;56.10
45060;DHT22;30799;49.060;9.312;2022-08-04T11:33:37;25.80;56.10
45060;DHT22;30799;49.060;9.312;2022-08-04T11:36:19;25.80;56.10
45060;DHT22;30799;49.060;9.312;2022-08-04T11:38:52;25.80;56.10
45060;DHT22;30799;49.060;9.312;2022-08-04T11:44:21;25.80;56.10
45060;DHT22;30799;49.060;9.312;2022-08-04T11:46:55;25.80;56.10
45060;DHT22;30799;49.060;9.312;2022-08-04T11:49:46;25.80;56.10
45060;DHT22;30799;49.060;9.312;2022-08-04T11:52:25;25.80;56.10
45060;DHT22;30799;49.060;9.312;2022-08-04T11:54:53;25.80;56.10
45060;DHT22;30799;49.060;9.312;2022-08-04T11:57:22;25.80;56.10
45060;DHT22;30799;49.060;9.312;2022-08-04T12:00:06;25.80;56.10
45060;DHT22;30799;49.060;9.312;2022-08-04T12:05:37;25.80;56.10
45060;DHT22;30799;49.060;9.312;2022-08-04T12:08:39;25.80;56.10
45060;DHT22;30799;49.060;9.312;2022-08-04T12:16:51;25.80;56.10
45060;DHT22;30799;49.060;9.312;2022-08-04T12:22:24;25.90;56.10
45060;DHT22;30799;49.060;9.312;2022-08-04T12:25:08;25.80;56.10
45060;DHT22;30799;49.060;9.312;2022-08-04T12:27:50;25.80;56.10
45060;DHT22;30799;49.060;9.312;2022-08-04T12:30:18;25.80;56.10
45060;DHT22;30799;49.060;9.312;2022-08-04T12:33:14;25.80;56.10
45060;DHT22;30799;49.060;9.312;2022-08-04T12:35:59;25.90;56.10
45060;DHT22;30799;49.060;9.312;2022-08-04T12:38:46;25.90;56.10
45060;DHT22;30799;49.060;9.312;2022-08-04T12:41:21;25.90;56.10
45060;DHT22;30799;49.060;9.312;2022-08-04T12:43:48;25.90;56.10
45060;DHT22;30799;49.060;9.312;2022-08-04T12:46:24;25.90;56.10
45060;DHT22;30799;49.060;9.312;2022-08-04T12:48:59;25.90;56.70
45060;DHT22;30799;49.060;9.312;2022-08-04T12:51:26;25.90;56.10
45060;DHT22;30799;49.060;9.312;2022-08-04T12:54:22;25.90;56.10
45060;DHT22;30799;49.060;9.312;2022-08-04T12:56:57;25.90;56.10
45060;DHT22;30799;49.060;9.312;2022-08-04T12:59:23;25.90;56.10
45060;DHT22;30799;49.060;9.312;2022-08-04T13:01:51;25.90;56.10
45060;DHT22;30799;49.060;9.312;2022-08-04T13:04:37;26.00;56.10
45060;DHT22;30799;49.060;9.312;2022-08-04T13:07:14;26.00;56.10
45060;DHT22;30799;49.060;9.312;2022-08-04T13:09:41;25.90;56.00
45060;DHT22;30799;49.060;9.312;2022-08-04T13:12:17;26.00;56.10
45060;DHT22;30799;49.060;9.312;2022-08-04T13:14:48;26.00;56.00
45060;DHT22;30799;49.060;9.312;2022-08-04T13:17:16;26.00;56.60
45060;DHT22;30799;49.060;9.312;2022-08-04T13:19:47;26.00;56.00
45060;DHT22;30799;49.060;9.312;2022-08-04T13:22:28;26.00;56.00
45060;DHT22;30799;49.060;9.312;2022-08-04T13:24:57;26.00;55.90
45060;DHT22;30799;49.060;9.312;2022-08-04T13:27:44;26.00;55.90
45060;DHT22;30799;49.060;9.312;2022-08-04T13:30:17;26.00;56.00
45060;DHT22;30799;49.060;9.312;2022-08-04T13:32:54;26.00;56.00
45060;DHT22;30799;49.060;9.312;2022-08-04T13:35:21;26.00;56.00
45060;DHT22;30799;49.060;9.312;2022-08-04T13:38:11;26.00;56.00
45060;DHT22;30799;49.060;9.312;2022-08-04T13:40:40;26.00;56.00
45060;DHT22;30799;49.060;9.312;2022-08-04T13:43:09;26.00;56.00
45060;DHT22;30799;49.060;9.312;2022-08-04T13:46:01;26.00;56.00
45060;DHT22;30799;49.060;9.312;2022-08-04T13:48:34;26.10;56.10
45060;DHT22;30799;49.060;9.312;2022-08-04T13:51:03;26.00;56.00
45060;DHT22;30799;49.060;9.312;2022-08-04T13:53:32;26.00;56.10
45060;DHT22;30799;49.060;9.312;2022-08-04T13:56:00;26.00;56.10
45060;DHT22;30799;49.060;9.312;2022-08-04T13:58:33;26.00;56.10
45060;DHT22;30799;49.060;9.312;2022-08-04T14:01:18;26.00;56.10
45060;DHT22;30799;49.060;9.312;2022-08-04T14:06:35;26.00;56.10
45060;DHT22;30799;49.060;9.312;2022-08-04T14:09:16;26.10;56.20
45060;DHT22;30799;49.060;9.312;2022-08-04T14:11:55;26.10;56.10
45060;DHT22;30799;49.060;9.312;2022-08-04T14:14:52;26.00;56.10
45060;DHT22;30799;49.060;9.312;2022-08-04T14:17:24;26.10;56.20
45060;DHT22;30799;49.060;9.312;2022-08-04T14:19:58;26.10;56.20
45060;DHT22;30799;49.060;9.312;2022-08-04T14:25:14;26.10;56.20
45060;DHT22;30799;49.060;9.312;2022-08-04T14:27:47;26.10;56.20
45060;DHT22;30799;49.060;9.312;2022-08-04T14:30:30;26.10;56.20
45060;DHT22;30799;49.060;9.312;2022-08-04T14:33:05;26.10;56.20
45060;DHT22;30799;49.060;9.312;2022-08-04T14:35:57;26.10;56.10
45060;DHT22;30799;49.060;9.312;2022-08-04T14:38:47;26.10;56.20
45060;DHT22;30799;49.060;9.312;2022-08-04T14:41:16;26.10;56.20
45060;DHT22;30799;49.060;9.312;2022-08-04T14:43:45;26.10;56.20
45060;DHT22;30799;49.060;9.312;2022-08-04T14:46:12;26.10;56.20
45060;DHT22;30799;49.060;9.312;2022-08-04T14:49:02;26.10;56.10
45060;DHT22;30799;49.060;9.312;2022-08-04T14:51:41;26.10;56.10
45060;DHT22;30799;49.060;9.312;2022-08-04T14:54:10;26.20;56.20
45060;DHT22;30799;49.060;9.312;2022-08-04T14:56:51;26.10;56.20
45060;DHT22;30799;49.060;9.312;2022-08-04T14:59:19;26.20;56.30
45060;DHT22;30799;49.060;9.312;2022-08-04T15:01:48;26.20;56.10
45060;DHT22;30799;49.060;9.312;2022-08-04T15:04:26;26.30;55.90
45060;DHT22;30799;49.060;9.312;2022-08-04T15:06:53;26.40;55.80
45060;DHT22;30799;49.060;9.312;2022-08-04T15:09:20;26.40;55.90
45060;DHT22;30799;49.060;9.312;2022-08-04T15:11:47;26.50;55.80
45060;DHT22;30799;49.060;9.312;2022-08-04T15:14:14;26.50;55.60
45060;DHT22;30799;49.060;9.312;2022-08-04T15:17:01;26.60;55.70
45060;DHT22;30799;49.060;9.312;2022-08-04T15:19:28;26.50;55.50
45060;DHT22;30799;49.060;9.312;2022-08-04T15:21:59;26.50;55.70
45060;DHT22;30799;49.060;9.312;2022-08-04T15:24:27;26.60;55.70
45060;DHT22;30799;49.060;9.312;2022-08-04T15:26:56;26.60;56.10
45060;DHT22;30799;49.060;9.312;2022-08-04T15:29:36;26.70;55.80
45060;DHT22;30799;49.060;9.312;2022-08-04T15:32:24;26.80;55.90
45060;DHT22;30799;49.060;9.312;2022-08-04T15:34:52;26.80;55.90
45060;DHT22;30799;49.060;9.312;2022-08-04T15:37:32;26.80;56.10
45060;DHT22;30799;49.060;9.312;2022-08-04T15:40:11;26.90;56.10
45060;DHT22;30799;49.060;9.312;2022-08-04T15:43:26;26.90;56.10
45060;DHT22;30799;49.060;9.312;2022-08-04T15:45:52;26.90;56.40
45060;DHT22;30799;49.060;9.312;2022-08-04T15:48:39;26.90;56.30
45060;DHT22;30799;49.060;9.312;2022-08-04T15:51:09;26.90;56.30
45060;DHT22;30799;49.060;9.312;2022-08-04T15:58:56;26.90;56.20
45060;DHT22;30799;49.060;9.312;2022-08-04T16:01:23;27.00;56.30
45060;DHT22;30799;49.060;9.312;2022-08-04T16:03:52;26.90;56.60
45060;DHT22;30799;49.060;9.312;2022-08-04T16:09:03;27.00;57.00
45060;DHT22;30799;49.060;9.312;2022-08-04T16:19:09;27.00;57.30
45060;DHT22;30799;49.060;9.312;2022-08-04T16:21:53;27.00;57.10
45060;DHT22;30799;49.060;9.312;2022-08-04T16:24:36;27.00;57.00
45060;DHT22;30799;49.060;9.312;2022-08-04T16:27:11;26.90;57.00
45060;DHT22;30799;49.060;9.312;2022-08-04T16:29:41;27.00;57.00
45060;DHT22;30799;49.060;9.312;2022-08-04T16:32:19;27.00;56.90
45060;DHT22;30799;49.060;9.312;2022-08-04T16:35:03;27.00;56.80
45060;DHT22;30799;49.060;9.312;2022-08-04T16:37:33;27.00;56.80
45060;DHT22;30799;49.060;9.312;2022-08-04T16:45:44;27.00;56.80
45060;DHT22;30799;49.060;9.312;2022-08-04T16:48:12;27.00;56.90
45060;DHT22;30799;49.060;9.312;2022-08-04T16:53:14;27.00;58.20
45060;DHT22;30799;49.060;9.312;2022-08-04T16:56:04;27.00;58.10
45060;DHT22;30799;49.060;9.312;2022-08-04T16:58:33;27.10;58.10
45060;DHT22;30799;49.060;9.312;2022-08-04T17:01:10;27.00;58.00
45060;DHT22;30799;49.060;9.312;2022-08-04T17:03:57;27.00;57.80
45060;DHT22;30799;49.060;9.312;2022-08-04T17:06:35;26.90;57.70
45060;DHT22;30799;49.060;9.312;2022-08-04T17:09:12;26.90;58.00
45060;DHT22;30799;49.060;9.312;2022-08-04T17:11:41;26.90;58.20
45060;DHT22;30799;49.060;9.312;2022-08-04T17:14:08;27.00;58.30
45060;DHT22;30799;49.060;9.312;2022-08-04T17:16:38;27.00;58.30
45060;DHT22;30799;49.060;9.312;2022-08-04T17:19:06;27.00;58.20
45060;DHT22;30799;49.060;9.312;2022-08-04T17:21:53;27.10;58.20
45060;DHT22;30799;49.060;9.312;2022-08-04T17:24:28;27.10;58.10
45060;DHT22;30799;49.060;9.312;2022-08-04T17:26:57;27.10;58.30
45060;DHT22;30799;49.060;9.312;2022-08-04T17:29:27;27.10;58.30
45060;DHT22;30799;49.060;9.312;2022-08-04T17:32:17;27.10;58.30
45060;DHT22;30799;49.060;9.312;2022-08-04T17:34:48;27.10;58.30
45060;DHT22;30799;49.060;9.312;2022-08-04T17:37:16;27.10;58.20
45060;DHT22;30799;49.060;9.312;2022-08-04T17:40:08;27.20;56.80
45060;DHT22;30799;49.060;9.312;2022-08-04T17:42:36;27.20;57.20
45060;DHT22;30799;49.060;9.312;2022-08-04T17:45:10;27.30;57.50
45060;DHT22;30799;49.060;9.312;2022-08-04T17:47:57;27.20;57.60
45060;DHT22;30799;49.060;9.312;2022-08-04T17:50:28;27.20;57.70
45060;DHT22;30799;49.060;9.312;2022-08-04T17:53:02;27.20;57.80
45060;DHT22;30799;49.060;9.312;2022-08-04T17:55:46;27.20;57.90
45060;DHT22;30799;49.060;9.312;2022-08-04T17:58:21;27.20;58.10
45060;DHT22;30799;49.060;9.312;2022-08-04T18:01:00;27.20;58.00
45060;DHT22;30799;49.060;9.312;2022-08-04T18:03:47;27.30;58.20
45060;DHT22;30799;49.060;9.312;2022-08-04T18:06:20;27.30;58.20
45060;DHT22;30799;49.060;9.312;2022-08-04T18:08:53;27.30;58.20
45060;DHT22;30799;49.060;9.312;2022-08-04T18:11:51;27.20;58.20
45060;DHT22;30799;49.060;9.312;2022-08-04T18:14:17;27.20;58.20
45060;DHT22;30799;49.060;9.312;2022-08-04T18:16:54;27.20;58.30
45060;DHT22;30799;49.060;9.312;2022-08-04T18:19:21;27.20;58.40
45060;DHT22;30799;49.060;9.312;2022-08-04T18:21:48;27.20;58.40
45060;DHT22;30799;49.060;9.312;2022-08-04T18:24:28;27.20;58.40
45060;DHT22;30799;49.060;9.312;2022-08-04T18:27:16;27.20;58.40
45060;DHT22;30799;49.060;9.312;2022-08-04T18:29:43;27.20;58.50
45060;DHT22;30799;49.060;9.312;2022-08-04T18:32:30;27.20;58.50
45060;DHT22;30799;49.060;9.312;2022-08-04T18:34:59;27.20;58.50
45060;DHT22;30799;49.060;9.312;2022-08-04T18:37:31;27.30;58.50
45060;DHT22;30799;49.060;9.312;2022-08-04T18:40:18;27.30;58.60
45060;DHT22;30799;49.060;9.312;2022-08-04T18:43:00;27.20;58.60
45060;DHT22;30799;49.060;9.312;2022-08-04T18:45:29;27.20;58.60
45060;DHT22;30799;49.060;9.312;2022-08-04T18:48:15;27.20;58.70
45060;DHT22;30799;49.060;9.312;2022-08-04T18:50:42;27.20;58.70
45060;DHT22;30799;49.060;9.312;2022-08-04T18:53:29;27.20;58.90
45060;DHT22;30799;49.060;9.312;2022-08-04T18:56:03;27.20;59.00
45060;DHT22;30799;49.060;9.312;2022-08-04T18:58:41;27.10;59.00
45060;DHT22;30799;49.060;9.312;2022-08-04T19:01:10;27.20;58.90
45060;DHT22;30799;49.060;9.312;2022-08-04T19:03:40;27.20;58.80
45060;DHT22;30799;49.060;9.312;2022-08-04T19:06:11;27.20;58.80
45060;DHT22;30799;49.060;9.312;2022-08-04T19:08:41;27.20;58.90
45060;DHT22;30799;49.060;9.312;2022-08-04T19:11:11;27.30;58.80
45060;DHT22;30799;49.060;9.312;2022-08-04T19:14:03;27.30;58.80
45060;DHT22;30799;49.060;9.312;2022-08-04T19:16:30;27.30;57.00
45060;DHT22;30799;49.060;9.312;2022-08-04T19:18:59;27.40;55.90
45060;DHT22;30799;49.060;9.312;2022-08-04T19:21:28;27.40;56.80
45060;DHT22;30799;49.060;9.312;2022-08-04T19:24:15;27.30;57.30
45060;DHT22;30799;49.060;9.312;2022-08-04T19:27:03;27.30;57.50
45060;DHT22;30799;49.060;9.312;2022-08-04T19:29:34;27.20;57.90
45060;DHT22;30799;49.060;9.312;2022-08-04T19:32:04;27.30;58.20
45060;DHT22;30799;49.060;9.312;2022-08-04T19:34:41;27.30;58.90
45060;DHT22;30799;49.060;9.312;2022-08-04T19:37:12;27.30;58.40
45060;DHT22;30799;49.060;9.312;2022-08-04T19:39:59;27.30;58.50
45060;DHT22;30799;49.060;9.312;2022-08-04T19:42:26;27.30;58.60
45060;DHT22;30799;49.060;9.312;2022-08-04T19:44:52;27.30;58.70
45060;DHT22;30799;49.060;9.312;2022-08-04T19:47:19;27.40;58.70
45060;DHT22;30799;49.060;9.312;2022-08-04T19:50:06;27.40;58.90
45060;DHT22;30799;49.060;9.312;2022-08-04T19:52:36;27.40;59.00
45060;DHT22;30799;49.060;9.312;2022-08-04T19:55:03;27.40;59.10
45060;DHT22;30799;49.060;9.312;2022-08-04T19:57:35;27.40;59.30
45060;DHT22;30799;49.060;9.312;2022-08-04T20:00:07;27.50;59.20
45060;DHT22;30799;49.060;9.312;2022-08-04T20:02:35;27.50;59.30
45060;DHT22;30799;49.060;9.312;2022-08-04T20:05:04;27.50;59.30
45060;DHT22;30799;49.060;9.312;2022-08-04T20:07:34;27.50;59.30